createdAt,value
2022-09-15T00:01:02.745Z,96958.30
2022-09-15T00:03:50.099Z,96955.55
2022-09-15T00:06:23.030Z,96950.33
2022-09-15T00:08:55.695Z,96951.85
2022-09-15T00:11:31.154Z,96949.04
2022-09-15T00:14:06.593Z,96948.52
2022-09-15T00:16:39.387Z,96950.04
2022-09-15T00:19:11.875Z,96948.34
2022-09-15T00:21:44.717Z,96945.35
2022-09-15T00:24:17.040Z,96940.62
2022-09-15T00:26:49.356Z,96937.16
2022-09-15T00:29:23.153Z,96930.50
2022-09-15T00:31:55.397Z,96930.16
2022-09-15T00:34:28.886Z,96930.64
2022-09-15T00:37:01.260Z,96930.17
2022-09-15T00:39:35.719Z,96930.42
2022-09-15T00:42:08.704Z,96928.94
2022-09-15T00:44:55.217Z,96927.55
2022-09-15T00:47:30.944Z,96919.40
2022-09-15T00:50:08.111Z,96923.85
2022-09-15T00:52:45.486Z,96921.17
2022-09-15T00:55:22.191Z,96911.71
2022-09-15T00:58:00.437Z,96903.29
2022-09-15T01:00:32.977Z,96896.13
2022-09-15T01:03:05.940Z,96887.25
2022-09-15T01:05:43.135Z,96881.91
2022-09-15T01:08:22.974Z,96878.21
2022-09-15T01:10:55.908Z,96880.59
2022-09-15T01:13:29.873Z,96881.63
2022-09-15T01:16:10.666Z,96885.15
2022-09-15T01:18:50.625Z,96884.98
2022-09-15T01:21:34.665Z,96883.76
2022-09-15T01:24:30.384Z,96880.35
2022-09-15T01:27:37.770Z,96874.55
2022-09-15T01:30:08.992Z,96878.05
2022-09-15T01:33:10.673Z,96880.18
2022-09-15T01:35:58.472Z,96866.66
2022-09-15T01:38:46.867Z,96854.94
2022-09-15T01:41:25.538Z,96855.47
2022-09-15T01:44:01.301Z,96859.50
2022-09-15T01:46:37.077Z,96858.48
2022-09-15T01:49:14.865Z,96853.05
2022-09-15T01:51:50.393Z,96852.80
2022-09-15T01:54:30.539Z,96851.27
2022-09-15T01:57:05.957Z,96857.98
2022-09-15T01:59:38.411Z,96863.86
2022-09-15T02:02:28.131Z,96864.92
2022-09-15T02:05:04.072Z,96865.09
2022-09-15T02:07:47.928Z,96854.33
2022-09-15T02:10:28.234Z,96845.86
2022-09-15T02:13:07.373Z,96844.98
2022-09-15T02:15:48.209Z,96840.27
2022-09-15T02:18:29.906Z,96843.57
2022-09-15T02:21:12.849Z,96838.18
2022-09-15T02:23:51.017Z,96833.17
2022-09-15T02:26:27.983Z,96834.70
2022-09-15T02:29:06.256Z,96831.85
2022-09-15T02:31:43.834Z,96830.25
2022-09-15T02:34:19.886Z,96828.36
2022-09-15T02:36:54.007Z,96832.59
2022-09-15T02:39:32.580Z,96830.95
2022-09-15T02:42:05.096Z,96839.27
2022-09-15T02:44:37.771Z,96840.83
2022-09-15T02:47:10.135Z,96841.27
2022-09-15T02:49:42.469Z,96838.96
2022-09-15T02:52:14.621Z,96839.38
2022-09-15T02:54:46.846Z,96836.70
2022-09-15T02:57:19.900Z,96835.75
2022-09-15T03:00:09.989Z,96833.75
2022-09-15T03:02:43.868Z,96830.83
2022-09-15T03:05:17.851Z,96825.20
2022-09-15T03:07:50.432Z,96819.85
2022-09-15T03:10:23.668Z,96821.83
2022-09-15T03:12:56.714Z,96818.79
2022-09-15T03:15:29.220Z,96821.37
2022-09-15T03:18:02.840Z,96823.47
2022-09-15T03:20:37.866Z,96829.19
2022-09-15T03:23:10.028Z,96827.95
2022-09-15T03:25:43.308Z,96828.27
2022-09-15T03:28:15.526Z,96826.88
2022-09-15T03:30:48.959Z,96826.80
2022-09-15T03:33:21.446Z,96823.84
2022-09-15T03:35:55.581Z,96825.30
2022-09-15T03:38:30.650Z,96823.83
2022-09-15T03:41:05.495Z,96821.59
2022-09-15T03:43:38.893Z,96823.45
2022-09-15T03:46:13.120Z,96825.50
2022-09-15T03:48:48.602Z,96829.90
2022-09-15T03:51:20.991Z,96828.02
2022-09-15T03:53:53.270Z,96833.48
2022-09-15T03:56:30.269Z,96834.34
2022-09-15T03:59:03.480Z,96833.67
2022-09-15T04:01:36.207Z,96839.14
2022-09-15T04:04:08.458Z,96845.35
2022-09-15T04:06:41.750Z,96842.60
2022-09-15T04:09:14.198Z,96843.70
2022-09-15T04:11:46.543Z,96839.82
2022-09-15T04:14:18.572Z,96843.84
2022-09-15T04:16:52.480Z,96845.90
2022-09-15T04:19:24.855Z,96852.17
2022-09-15T04:21:57.621Z,96853.09
2022-09-15T04:24:30.084Z,96846.63
2022-09-15T04:27:02.870Z,96847.29
2022-09-15T04:29:36.655Z,96846.13
2022-09-15T04:32:09.458Z,96845.42
2022-09-15T04:34:42.320Z,96841.58
2022-09-15T04:37:18.525Z,96844.79
2022-09-15T04:39:51.115Z,96845.82
2022-09-15T04:42:24.106Z,96847.66
2022-09-15T04:44:56.381Z,96847.70
2022-09-15T04:47:31.426Z,96849.59
2022-09-15T04:50:03.669Z,96854.41
2022-09-15T04:52:35.893Z,96855.67
2022-09-15T04:55:09.425Z,96854.31
2022-09-15T04:57:41.946Z,96850.67
2022-09-15T05:00:19.227Z,96846.39
2022-09-15T05:02:52.551Z,96849.84
2022-09-15T05:05:25.477Z,96853.66
2022-09-15T05:08:01.064Z,96857.27
2022-09-15T05:10:35.685Z,96854.64
2022-09-15T05:13:08.310Z,96852.70
2022-09-15T05:15:42.900Z,96850.95
2022-09-15T05:18:15.674Z,96856.86
2022-09-15T05:21:07.991Z,96859.08
2022-09-15T05:23:48.046Z,96855.92
2022-09-15T05:26:21.968Z,96864.34
2022-09-15T05:29:24.804Z,96868.58
2022-09-15T05:32:03.371Z,96873.67
2022-09-15T05:34:35.878Z,96874.05
2022-09-15T05:46:22.700Z,96896.95
2022-09-15T05:48:57.695Z,96899.15
2022-09-15T05:51:30.301Z,96901.85
2022-09-15T05:54:02.898Z,96908.42
2022-09-15T05:56:35.105Z,96908.55
2022-09-15T05:59:07.613Z,96903.25
2022-09-15T06:01:39.954Z,96902.89
2022-09-15T06:04:12.501Z,96905.96
2022-09-15T06:06:44.653Z,96912.46
2022-09-15T06:09:17.130Z,96912.30
2022-09-15T06:11:51.735Z,96913.23
2022-09-15T06:14:24.685Z,96918.27
2022-09-15T06:16:56.894Z,96917.27
2022-09-15T06:19:28.980Z,96915.17
2022-09-15T06:22:01.043Z,96915.13
2022-09-15T06:24:33.381Z,96918.05
2022-09-15T06:27:08.662Z,96931.85
2022-09-15T06:30:30.317Z,96944.36
2022-09-15T06:33:02.667Z,96955.44
2022-09-15T06:35:34.708Z,96957.77
2022-09-15T06:38:07.181Z,96955.63
2022-09-15T06:40:39.339Z,96958.73
2022-09-15T06:43:11.894Z,96958.27
2022-09-15T06:45:44.247Z,96958.77
2022-09-15T06:48:24.381Z,96963.36
2022-09-15T06:50:58.785Z,96965.14
2022-09-15T06:53:32.886Z,96967.31
2022-09-15T06:56:08.115Z,96967.10
2022-09-15T06:58:42.475Z,96973.55
2022-09-15T07:01:26.624Z,96981.77
2022-09-15T07:04:00.859Z,96986.66
2022-09-15T07:06:35.211Z,96987.85
2022-09-15T07:13:16.432Z,96987.19
2022-09-15T07:24:55.581Z,97009.84
2022-09-15T07:32:01.561Z,97023.34
2022-09-15T07:34:34.566Z,97026.09
2022-09-15T07:37:13.236Z,97022.87
2022-09-15T07:39:46.343Z,97018.60
2022-09-15T07:42:25.830Z,97020.13
2022-09-15T07:44:58.065Z,97028.23
2022-09-15T07:47:37.226Z,97027.90
2022-09-15T07:50:11.019Z,97027.94
2022-09-15T07:52:50.200Z,97034.02
2022-09-15T07:55:22.415Z,97043.61
2022-09-15T07:58:47.855Z,97052.05
2022-09-15T08:01:26.298Z,97069.77
2022-09-15T08:03:59.216Z,97072.69
2022-09-15T08:06:38.313Z,97069.11
2022-09-15T08:13:02.784Z,97078.92
2022-09-15T08:16:08.830Z,97080.70
2022-09-15T08:18:48.466Z,97084.86
2022-09-15T08:21:22.259Z,97090.50
2022-09-15T08:24:02.477Z,97100.45
2022-09-15T08:32:08.854Z,97099.33
2022-09-15T08:34:47.297Z,97109.58
2022-09-15T08:37:20.324Z,97113.73
2022-09-15T08:40:52.362Z,97113.94
2022-09-15T08:48:33.101Z,97133.23
2022-09-15T09:00:35.813Z,97129.41
2022-09-15T09:25:38.852Z,97135.51
2022-09-15T09:28:31.988Z,97136.61
2022-09-15T09:39:17.137Z,97132.96
2022-09-15T09:41:57.599Z,97126.14
2022-09-15T09:53:46.025Z,97134.89
2022-09-15T09:57:14.962Z,97134.45
2022-09-15T09:59:48.915Z,97130.63
2022-09-15T10:02:24.854Z,97124.16
2022-09-15T10:05:17.702Z,97124.45
2022-09-15T10:07:50.096Z,97130.73
2022-09-15T10:10:24.448Z,97133.66
2022-09-15T10:12:59.391Z,97135.61
2022-09-15T10:15:34.185Z,97142.76
2022-09-15T10:18:07.665Z,97146.80
2022-09-15T10:20:48.113Z,97146.17
2022-09-15T10:23:26.894Z,97150.87
2022-09-15T10:26:20.164Z,97149.27
2022-09-15T10:29:22.125Z,97144.75
2022-09-15T10:31:54.315Z,97139.73
2022-09-15T10:34:32.135Z,97134.34
2022-09-15T10:37:16.404Z,97136.00
2022-09-15T10:40:00.036Z,97137.17
2022-09-15T10:42:50.068Z,97136.86
2022-09-15T10:45:28.852Z,97129.41
2022-09-15T10:48:23.525Z,97128.08
2022-09-15T10:51:00.296Z,97123.61
2022-09-15T10:53:45.769Z,97117.98
2022-09-15T10:56:27.606Z,97105.88
2022-09-15T10:59:19.464Z,97103.25
2022-09-15T11:02:04.004Z,97100.71
2022-09-15T11:04:48.034Z,97100.33
2022-09-15T11:07:30.471Z,97103.21
2022-09-15T11:10:14.084Z,97112.70
2022-09-15T11:12:56.790Z,97107.96
2022-09-15T11:15:42.569Z,97099.92
2022-09-15T11:18:36.249Z,97102.87
2022-09-15T11:21:21.707Z,97098.91
2022-09-15T11:24:04.303Z,97109.42
2022-09-15T11:26:43.356Z,97112.13
2022-09-15T11:29:21.512Z,97114.11
2022-09-15T11:31:58.332Z,97113.52
2022-09-15T11:34:36.082Z,97109.52
2022-09-15T11:37:16.345Z,97100.98
2022-09-15T11:39:57.640Z,97101.91
2022-09-15T11:42:36.348Z,97093.80
2022-09-15T11:45:18.874Z,97094.85
2022-09-15T11:47:54.607Z,97085.29
2022-09-15T11:50:33.690Z,97078.84
2022-09-15T11:53:13.295Z,97088.57
2022-09-15T11:55:50.220Z,97097.95
2022-09-15T11:58:30.382Z,97100.60
2022-09-15T12:01:09.909Z,97099.54
2022-09-15T12:03:50.706Z,97096.73
2022-09-15T12:06:27.915Z,97086.23
2022-09-15T12:09:02.881Z,97088.73
2022-09-15T12:11:39.480Z,97088.73
2022-09-15T12:14:17.867Z,97090.26
2022-09-15T12:16:50.663Z,97090.66
2022-09-15T12:19:42.129Z,97091.98
2022-09-15T12:22:24.134Z,97092.59
2022-09-15T12:25:02.614Z,97091.58
2022-09-15T12:27:34.916Z,97087.72
2022-09-15T12:30:28.304Z,97076.08
2022-09-15T12:33:00.658Z,97078.75
2022-09-15T12:35:35.836Z,97079.38
2022-09-15T12:38:16.121Z,97077.58
2022-09-15T12:40:57.957Z,97079.10
2022-09-15T12:43:31.790Z,97076.63
2022-09-15T12:46:04.747Z,97070.61
2022-09-15T12:48:47.314Z,97060.08
2022-09-15T12:51:28.181Z,97063.73
2022-09-15T12:54:08.785Z,97069.62
2022-09-15T12:56:40.983Z,97064.83
2022-09-15T12:59:17.134Z,97063.25
2022-09-15T13:10:27.852Z,97076.06
2022-09-15T13:13:13.609Z,97075.60
2022-09-15T13:15:52.300Z,97068.46
2022-09-15T13:18:25.165Z,97065.17
2022-09-15T13:21:14.042Z,97063.13
2022-09-15T13:23:49.337Z,97070.49
2022-09-15T13:26:26.293Z,97073.08
2022-09-15T13:29:00.872Z,97075.10
2022-09-15T13:31:51.104Z,97076.34
2022-09-15T13:35:05.089Z,97078.91
2022-09-15T13:38:12.266Z,97076.70
2022-09-15T13:41:08.074Z,97076.45
2022-09-15T13:44:13.847Z,97078.09
2022-09-15T13:46:58.367Z,97079.61
2022-09-15T13:49:45.932Z,97084.89
2022-09-15T13:52:43.191Z,97088.88
2022-09-15T13:55:28.113Z,97078.27
2022-09-15T14:01:02.445Z,97078.05
2022-09-15T14:03:42.442Z,97076.13
2022-09-15T14:06:20.718Z,97073.61
2022-09-15T14:08:55.109Z,97067.60
2022-09-15T14:11:32.732Z,97068.10
2022-09-15T14:14:10.270Z,97063.13
2022-09-15T14:16:55.293Z,97057.73
2022-09-15T14:19:35.142Z,97056.63
2022-09-15T14:22:26.810Z,97050.36
2022-09-15T14:25:01.669Z,97045.14
2022-09-15T14:27:37.227Z,97035.59
2022-09-15T14:30:19.058Z,97032.95
2022-09-15T14:32:55.169Z,97038.30
2022-09-15T14:35:31.893Z,97035.02
2022-09-15T14:38:04.245Z,97034.39
2022-09-15T14:40:38.909Z,97034.30
2022-09-15T14:43:39.383Z,97035.79
2022-09-15T14:46:15.650Z,97031.10
2022-09-15T14:48:48.239Z,97031.96
2022-09-15T14:51:28.666Z,97031.15
2022-09-15T14:54:04.895Z,97028.96
2022-09-15T14:56:42.229Z,97021.64
2022-09-15T14:59:20.718Z,97020.23
2022-09-15T15:01:58.764Z,97025.27
2022-09-15T15:04:37.907Z,97026.34
2022-09-15T15:07:22.742Z,97029.54
2022-09-15T15:10:00.756Z,97031.42
2022-09-15T15:12:36.257Z,97033.45
2022-09-15T15:15:11.978Z,97029.66
2022-09-15T15:17:49.375Z,97037.31
2022-09-15T15:20:24.780Z,97042.21
2022-09-15T15:23:15.818Z,97040.73
2022-09-15T15:25:48.213Z,97038.19
2022-09-15T15:28:39.697Z,97033.02
2022-09-15T15:31:20.491Z,97027.77
2022-09-15T15:33:55.918Z,97025.36
2022-09-15T15:36:30.512Z,97021.74
2022-09-15T15:39:05.366Z,97019.38
2022-09-15T15:41:43.945Z,97024.93
2022-09-15T15:44:35.978Z,97025.30
2022-09-15T15:47:30.790Z,97031.42
2022-09-15T15:50:14.401Z,97037.64
2022-09-15T15:52:47.568Z,97040.33
2022-09-15T15:55:22.441Z,97038.66
2022-09-15T15:57:56.193Z,97039.77
2022-09-15T16:00:32.879Z,97043.91
2022-09-15T16:03:06.944Z,97050.50
2022-09-15T16:05:40.748Z,97049.59
2022-09-15T16:08:16.392Z,97049.59
2022-09-15T16:10:52.061Z,97048.13
2022-09-15T16:13:27.479Z,97047.91
2022-09-15T16:16:01.867Z,97058.73
2022-09-15T16:18:34.496Z,97057.16
2022-09-15T16:21:06.729Z,97062.76
2022-09-15T16:23:39.434Z,97056.86
2022-09-15T16:26:15.772Z,97055.24
2022-09-15T16:28:48.117Z,97066.05
2022-09-15T16:31:24.524Z,97061.51
2022-09-15T16:33:58.701Z,97060.81
2022-09-15T16:36:31.894Z,97062.58
2022-09-15T16:39:04.121Z,97055.17
2022-09-15T16:41:39.499Z,97055.79
2022-09-15T16:44:19.346Z,97060.60
2022-09-15T16:46:52.996Z,97060.48
2022-09-15T16:49:28.255Z,97063.71
2022-09-15T16:52:00.698Z,97066.93
2022-09-15T16:54:36.401Z,97062.33
2022-09-15T16:57:09.432Z,97060.17
2022-09-15T16:59:42.976Z,97064.81
2022-09-15T17:02:21.316Z,97065.13
2022-09-15T17:04:53.571Z,97067.48
2022-09-15T17:07:26.372Z,97074.52
2022-09-15T17:09:58.713Z,97073.52
2022-09-15T17:12:34.326Z,97080.89
2022-09-15T17:15:19.595Z,97084.29
2022-09-15T17:17:51.864Z,97080.63
2022-09-15T17:20:25.505Z,97080.04
2022-09-15T17:23:00.595Z,97081.18
2022-09-15T17:25:39.571Z,97093.00
2022-09-15T17:28:14.645Z,97089.21
2022-09-15T17:31:11.271Z,97082.83
2022-09-15T17:33:45.437Z,97079.02
2022-09-15T17:36:18.380Z,97077.77
2022-09-15T17:38:56.195Z,97075.74
2022-09-15T17:41:33.041Z,97074.72
2022-09-15T17:44:06.511Z,97067.06
2022-09-15T17:46:46.208Z,97068.53
2022-09-15T17:49:22.246Z,97069.17
2022-09-15T17:52:11.072Z,97074.27
2022-09-15T17:54:46.665Z,97082.44
2022-09-15T17:57:18.957Z,97078.00
2022-09-15T17:59:53.472Z,97089.23
2022-09-15T18:02:41.671Z,97085.94
2022-09-15T18:05:26.118Z,97086.23
2022-09-15T18:08:13.824Z,97085.33
2022-09-15T18:10:52.192Z,97090.08
2022-09-15T18:13:28.067Z,97092.35
2022-09-15T18:16:08.614Z,97100.15
2022-09-15T18:18:45.872Z,97108.92
2022-09-15T18:21:30.797Z,97112.96
2022-09-15T18:24:05.130Z,97116.98
2022-09-15T18:26:37.720Z,97114.14
2022-09-15T18:29:10.422Z,97111.14
2022-09-15T18:31:43.028Z,97105.77
2022-09-15T18:34:15.862Z,97105.04
2022-09-15T18:37:00.729Z,97099.84
2022-09-15T18:39:34.537Z,97096.36
2022-09-15T18:42:09.290Z,97088.77
2022-09-15T18:44:44.441Z,97090.11
2022-09-15T18:47:18.108Z,97090.46
2022-09-15T18:49:51.201Z,97089.36
2022-09-15T18:52:26.530Z,97087.40
2022-09-15T18:55:02.434Z,97098.60
2022-09-15T18:57:39.450Z,97098.64
2022-09-15T19:00:16.933Z,97101.51
2022-09-15T19:02:49.821Z,97098.61
2022-09-15T19:05:23.103Z,97102.36
2022-09-15T19:07:58.470Z,97102.86
2022-09-15T19:10:31.370Z,97104.40
2022-09-15T19:13:07.667Z,97099.52
2022-09-15T19:15:44.333Z,97106.67
2022-09-15T19:18:28.147Z,97105.07
2022-09-15T19:21:14.086Z,97108.48
2022-09-15T19:23:47.942Z,97106.70
2022-09-15T19:26:20.755Z,97109.20
2022-09-15T19:28:56.540Z,97110.70
2022-09-15T19:31:29.375Z,97116.55
2022-09-15T19:34:02.713Z,97118.58
2022-09-15T19:36:39.429Z,97114.90
2022-09-15T19:39:15.019Z,97115.46
2022-09-15T19:41:50.207Z,97113.40
2022-09-15T19:44:23.482Z,97112.21
2022-09-15T19:47:01.980Z,97107.50
2022-09-15T19:49:37.927Z,97113.05
2022-09-15T19:52:10.456Z,97118.02
2022-09-15T19:54:44.282Z,97120.59
2022-09-15T19:57:17.012Z,97118.09
2022-09-15T19:59:50.837Z,97123.83
2022-09-15T20:02:23.027Z,97125.87
2022-09-15T20:04:56.513Z,97132.84
2022-09-15T20:07:38.614Z,97129.66
2022-09-15T20:10:13.441Z,97136.61
2022-09-15T20:12:50.426Z,97131.10
2022-09-15T20:15:23.023Z,97131.29
2022-09-15T20:17:57.425Z,97128.06
2022-09-15T20:20:41.668Z,97127.63
2022-09-15T20:23:15.295Z,97128.64
2022-09-15T20:25:57.418Z,97132.40
2022-09-15T20:28:31.791Z,97129.16
2022-09-15T20:31:06.840Z,97131.44
2022-09-15T20:33:42.712Z,97135.52
2022-09-15T20:36:16.914Z,97136.48
2022-09-15T20:38:49.470Z,97137.13
2022-09-15T20:41:23.996Z,97138.40
2022-09-15T20:43:57.019Z,97139.98
2022-09-15T20:46:31.384Z,97143.74
2022-09-15T20:49:03.986Z,97143.57
2022-09-15T20:51:36.645Z,97146.67
2022-09-15T20:54:08.933Z,97153.68
2022-09-15T20:56:41.243Z,97153.17
2022-09-15T20:59:16.762Z,97150.20
2022-09-15T21:01:49.344Z,97151.47
2022-09-15T21:04:22.799Z,97157.27
2022-09-15T21:06:54.912Z,97158.00
2022-09-15T21:09:28.364Z,97161.60
2022-09-15T21:12:01.224Z,97163.15
2022-09-15T21:14:33.583Z,97169.96
2022-09-15T21:17:06.079Z,97175.09
2022-09-15T21:19:40.343Z,97176.33
2022-09-15T21:22:12.626Z,97177.15
2022-09-15T21:24:45.527Z,97179.77
2022-09-15T21:27:30.765Z,97181.14
2022-09-15T21:30:02.969Z,97185.15
2022-09-15T21:32:36.496Z,97183.34
2022-09-15T21:35:12.407Z,97184.94
2022-09-15T21:37:44.543Z,97183.98
2022-09-15T21:40:19.914Z,97184.64
2022-09-15T21:42:52.514Z,97188.48
2022-09-15T21:45:24.657Z,97191.52
2022-09-15T21:47:57.051Z,97191.36
2022-09-15T21:50:29.720Z,97196.06
2022-09-15T21:53:01.835Z,97194.89
2022-09-15T21:55:36.727Z,97203.27
2022-09-15T21:58:08.955Z,97200.67
2022-09-15T22:00:41.262Z,97207.34
2022-09-15T22:03:13.891Z,97208.21
2022-09-15T22:05:48.403Z,97204.19
2022-09-15T22:08:23.750Z,97209.16
2022-09-15T22:11:01.396Z,97211.50
2022-09-15T22:13:33.745Z,97215.14
2022-09-15T22:16:07.983Z,97215.80
2022-09-15T22:18:41.672Z,97218.86
2022-09-15T22:21:16.095Z,97218.48
2022-09-15T22:23:50.646Z,97219.97
2022-09-15T22:26:27.958Z,97222.61
2022-09-15T22:29:01.443Z,97220.31
2022-09-15T22:31:34.637Z,97223.23
2022-09-15T22:34:06.962Z,97223.39
2022-09-15T22:36:39.135Z,97223.50
2022-09-15T22:39:12.871Z,97225.43
2022-09-15T22:41:44.994Z,97229.53
2022-09-15T22:44:22.243Z,97232.27
2022-09-15T22:46:54.312Z,97237.33
2022-09-15T22:49:27.449Z,97233.77
2022-09-15T22:51:59.747Z,97228.45
2022-09-15T22:54:31.828Z,97231.46
2022-09-15T22:57:03.957Z,97232.86
2022-09-15T22:59:36.319Z,97233.64
2022-09-15T23:02:08.835Z,97240.08
2022-09-15T23:04:41.135Z,97238.34
2022-09-15T23:07:14.516Z,97236.16
2022-09-15T23:09:48.078Z,97244.14
2022-09-15T23:12:20.643Z,97248.69
2022-09-15T23:14:53.216Z,97254.23
2022-09-15T23:17:25.845Z,97247.46
2022-09-15T23:19:58.386Z,97245.25
2022-09-15T23:22:30.452Z,97244.73
2022-09-15T23:25:02.963Z,97243.58
2022-09-15T23:27:35.369Z,97241.17
2022-09-15T23:30:09.276Z,97241.40
2022-09-15T23:32:41.312Z,97251.73
2022-09-15T23:35:13.910Z,97260.61
2022-09-15T23:37:46.946Z,97260.19
2022-09-15T23:40:22.057Z,97263.34
2022-09-15T23:42:54.541Z,97262.00
2022-09-15T23:45:26.696Z,97264.41
2022-09-15T23:47:59.574Z,97265.58
2022-09-15T23:50:34.609Z,97269.63
2022-09-15T23:53:07.904Z,97269.77
2022-09-15T23:55:40.326Z,97271.63
2022-09-15T23:58:15.688Z,97272.34
